Time;durP1;ratioP1;P1;durP2;ratioP2;P2;SDS_P1;SDS_P2;PMS_P1;PMS_P2;Temp;Humidity;BMP_temperature;BMP_pressure;BME280_temperature;BME280_humidity;BME280_pressure;Samples;Min_cycle;Max_cycle;Signal;HPM_P1;HPM_P2
2024/03/20 00:01:55;;;;;;;;;;;;;;;17.01;48.43;101012.53;5065147;28;1115;-62
2024/03/20 00:04:21;;;;;;;;;;;;;;;16.32;50.24;101002.59;5076612;28;1075;-62
2024/03/20 00:06:46;;;;;;;;;;;;;;;16.02;51.07;101004.06;5050861;28;852;-61
2024/03/20 00:09:13;;;;;;;;;;;;;;;15.73;51.67;101002.47;5052754;28;1108;-61
2024/03/20 00:11:38;;;;;;;;;;;;;;;15.54;52.26;101006.69;5069404;28;1066;-63
2024/03/20 00:14:07;;;;;;;;;;;;;;;15.52;52.25;101006.13;5069194;28;1032;-63
2024/03/20 00:16:34;;;;;;;;;;;;;;;17.14;48.45;101008.44;5053844;28;1905;-64
2024/03/20 00:19:00;;;;;;;;;;;;;;;17.95;46.42;101009.59;5039371;28;933;-64
2024/03/20 00:21:26;;;;;;;;;;;;;;;16.81;48.95;101009.69;5056914;28;1291;-64
2024/03/20 00:23:52;;;;;;;;;;;;;;;16.22;50.46;100995.97;5070483;28;1061;-64
2024/03/20 00:26:18;;;;;;;;;;;;;;;15.88;51.25;100990.00;5065487;28;1098;-64
2024/03/20 00:28:43;;;;;;;;;;;;;;;15.69;51.60;100993.09;5061212;28;2417;-63
2024/03/20 00:31:09;;;;;;;;;;;;;;;15.54;52.00;101001.19;5060236;28;925;-63
2024/03/20 00:33:34;;;;;;;;;;;;;;;15.46;51.92;100993.44;5053460;28;1103;-63
2024/03/20 00:36:00;;;;;;;;;;;;;;;15.81;51.83;100992.13;5076737;28;1960;-63
2024/03/20 00:38:25;;;;;;;;;;;;;;;17.28;48.02;101003.25;5064198;28;1074;-62
2024/03/20 00:40:51;;;;;;;;;;;;;;;17.27;47.85;101002.41;5051634;28;1090;-62
2024/03/20 00:43:16;;;;;;;;;;;;;;;16.37;50.08;100999.91;5069938;28;889;-62
2024/03/20 00:45:43;;;;;;;;;;;;;;;15.97;51.16;100991.13;5063694;28;1123;-62
2024/03/20 00:48:08;;;;;;;;;;;;;;;15.71;51.59;100990.94;5076330;28;968;-63
2024/03/20 00:50:34;;;;;;;;;;;;;;;15.57;52.02;100995.19;5076646;28;1085;-62
2024/03/20 00:52:59;;;;;;;;;;;;;;;15.40;52.20;100998.91;5075616;28;1058;-62
2024/03/20 00:55:25;;;;;;;;;;;;;;;16.04;51.20;100994.47;5069422;28;1116;-62
2024/03/20 00:57:51;;;;;;;;;;;;;;;17.34;47.87;100996.63;5055149;28;2571;-62
2024/03/20 01:00:19;;;;;;;;;;;;;;;17.25;47.59;100992.78;5076419;28;1035;-62
2024/03/20 01:02:45;;;;;;;;;;;;;;;16.39;49.79;100987.53;5045449;28;1183;-62
2024/03/20 01:05:11;;;;;;;;;;;;;;;15.88;51.32;100988.06;5057044;28;1064;-62
2024/03/20 01:07:36;;;;;;;;;;;;;;;15.69;51.72;100993.09;5070645;28;1116;-62
2024/03/20 01:10:03;;;;;;;;;;;;;;;15.52;51.95;100989.69;5058119;28;1103;-63
2024/03/20 01:12:29;;;;;;;;;;;;;;;15.60;52.04;100986.47;5075777;28;1039;-63
2024/03/20 01:14:55;;;;;;;;;;;;;;;17.19;48.06;100991.13;5075492;28;1061;-63
2024/03/20 01:17:20;;;;;;;;;;;;;;;17.70;46.77;100993.91;5073524;28;1906;-63
2024/03/20 01:19:46;;;;;;;;;;;;;;;16.58;49.48;100987.91;5055929;28;1051;-62
2024/03/20 01:22:12;;;;;;;;;;;;;;;16.08;50.47;100981.88;5070273;28;1115;-62
2024/03/20 01:24:37;;;;;;;;;;;;;;;15.85;51.34;100985.03;5075994;28;1114;-63
2024/03/20 01:27:03;;;;;;;;;;;;;;;15.63;51.60;100985.94;5062389;28;1186;-62
2024/03/20 01:29:28;;;;;;;;;;;;;;;15.48;51.86;100988.56;5056719;28;2780;-63
2024/03/20 01:31:54;;;;;;;;;;;;;;;16.34;50.26;100990.28;5057184;28;1175;-63
2024/03/20 01:34:19;;;;;;;;;;;;;;;17.54;47.27;100984.00;5075769;28;1063;-63
2024/03/20 01:36:45;;;;;;;;;;;;;;;17.38;47.28;100994.19;5075189;28;1890;-61
2024/03/20 01:39:11;;;;;;;;;;;;;;;16.48;49.46;100996.09;5072304;28;1204;-61
2024/03/20 01:41:37;;;;;;;;;;;;;;;16.05;50.51;100987.91;5064080;28;1143;-61
2024/03/20 01:44:02;;;;;;;;;;;;;;;15.83;51.16;100998.19;5075986;28;1121;-61
2024/03/20 01:46:32;;;;;;;;;;;;;;;15.64;51.36;100990.34;5062170;28;1084;-61
2024/03/20 01:48:58;;;;;;;;;;;;;;;15.50;51.93;101002.81;5075737;28;995;-62
2024/03/20 01:51:24;;;;;;;;;;;;;;;17.08;48.36;101012.25;5075297;28;1083;-62
2024/03/20 01:53:50;;;;;;;;;;;;;;;17.99;45.97;101004.34;5071417;28;1078;-62
2024/03/20 01:56:16;;;;;;;;;;;;;;;17.19;47.40;101004.88;5070168;28;1918;-62
2024/03/20 01:58:41;;;;;;;;;;;;;;;16.42;49.53;101000.75;5046093;28;2826;-62
2024/03/20 02:01:07;;;;;;;;;;;;;;;16.11;50.07;101004.41;5068385;28;1012;-62
2024/03/20 02:03:32;;;;;;;;;;;;;;;15.81;51.06;100995.69;5056043;28;1198;-61
2024/03/20 02:05:58;;;;;;;;;;;;;;;15.67;51.19;101011.75;5066672;28;1206;-66
2024/03/20 02:08:24;;;;;;;;;;;;;;;16.88;48.60;101011.09;5075526;28;1085;-65
2024/03/20 02:10:50;;;;;;;;;;;;;;;17.85;46.20;101017.84;5074955;28;1017;-64
2024/03/20 02:13:15;;;;;;;;;;;;;;;16.71;48.69;101019.53;5055445;28;1110;-65
2024/03/20 02:15:41;;;;;;;;;;;;;;;16.25;49.87;101016.56;5069805;28;1253;-64
2024/03/20 02:18:07;;;;;;;;;;;;;;;15.98;50.32;101017.50;5071409;28;1930;-64
2024/03/20 02:20:34;;;;;;;;;;;;;;;15.62;51.45;101019.09;5048906;28;1170;-64
2024/03/20 02:22:59;;;;;;;;;;;;;;;15.51;51.30;101023.66;5067193;28;1135;-64
2024/03/20 02:25:28;;;;;;;;;;;;;;;16.39;49.71;101028.69;5025624;28;1332;-65
2024/03/20 02:27:54;;;;;;;;;;;;;;;17.62;46.59;101027.44;5072133;28;2527;-65
2024/03/20 02:30:20;;;;;;;;;;;;;;;16.98;47.99;101032.28;5064000;28;1313;-65
2024/03/20 02:32:45;;;;;;;;;;;;;;;16.12;50.09;101034.31;5067743;28;1143;-65
2024/03/20 02:35:11;;;;;;;;;;;;;;;15.80;50.74;101037.09;5058953;28;1154;-64
2024/03/20 02:37:36;;;;;;;;;;;;;;;15.71;51.11;101031.22;5063431;28;1905;-63
2024/03/20 02:40:03;;;;;;;;;;;;;;;15.45;51.68;101030.19;5073030;28;1043;-63
2024/03/20 02:42:28;;;;;;;;;;;;;;;16.07;50.40;101034.28;5073097;28;1063;-63
2024/03/20 02:44:54;;;;;;;;;;;;;;;17.41;46.85;101037.63;5057992;28;1012;-63
2024/03/20 02:47:20;;;;;;;;;;;;;;;17.51;46.45;101036.78;5054068;28;1127;-64
2024/03/20 02:49:50;;;;;;;;;;;;;;;16.45;49.07;101037.78;5077465;28;1138;-63
2024/03/20 02:52:18;;;;;;;;;;;;;;;16.00;50.12;101029.00;5067150;28;1151;-63
2024/03/20 02:54:43;;;;;;;;;;;;;;;15.82;50.39;101040.41;5070052;28;1151;-63
2024/03/20 02:57:09;;;;;;;;;;;;;;;15.56;51.23;101037.41;5078842;28;1981;-63
2024/03/20 02:59:34;;;;;;;;;;;;;;;16.08;50.02;101044.97;5077024;28;1130;-63
2024/03/20 03:02:00;;;;;;;;;;;;;;;17.45;46.73;101055.22;5066835;28;1059;-63
2024/03/20 03:04:25;;;;;;;;;;;;;;;17.22;46.83;101048.28;5063976;28;1154;-63
2024/03/20 03:06:51;;;;;;;;;;;;;;;16.38;49.14;101056.41;5059280;28;1253;-63
2024/03/20 03:09:16;;;;;;;;;;;;;;;15.96;50.21;101055.31;5060113;28;1060;-63
2024/03/20 03:11:43;;;;;;;;;;;;;;;15.77;50.54;101059.50;5070285;28;1133;-64
2024/03/20 03:14:09;;;;;;;;;;;;;;;15.58;51.08;101057.16;5072953;28;1046;-61
2024/03/20 03:16:34;;;;;;;;;;;;;;;15.68;51.08;101061.91;5078131;28;1910;-65
2024/03/20 03:19:00;;;;;;;;;;;;;;;17.24;46.93;101065.34;5054374;28;1145;-65
2024/03/20 03:21:25;;;;;;;;;;;;;;;17.86;45.57;101059.91;5078745;28;1062;-65
2024/03/20 03:23:51;;;;;;;;;;;;;;;16.72;48.10;101065.13;5062650;28;1217;-66
2024/03/20 03:26:17;;;;;;;;;;;;;;;16.17;49.55;101064.53;5066045;28;1064;-65
2024/03/20 03:28:43;;;;;;;;;;;;;;;15.85;50.32;101064.53;5064953;28;1159;-65
2024/03/20 03:31:08;;;;;;;;;;;;;;;15.69;50.58;101064.38;5069972;28;849;-66
2024/03/20 03:33:34;;;;;;;;;;;;;;;15.86;50.78;101068.94;5071264;28;1159;-64
2024/03/20 03:36:03;;;;;;;;;;;;;;;17.41;46.53;101081.59;5066339;28;1043;-63
2024/03/20 03:38:29;;;;;;;;;;;;;;;17.87;45.16;101097.34;5058336;28;1181;-62
2024/03/20 03:41:00;;;;;;;;;;;;;;;16.69;48.35;101106.84;5077920;28;1145;-63
2024/03/20 03:43:26;;;;;;;;;;;;;;;16.16;49.60;101114.16;5071578;28;1134;-62
2024/03/20 03:45:52;;;;;;;;;;;;;;;15.90;50.36;101113.97;5069426;28;1074;-62
2024/03/20 03:48:17;;;;;;;;;;;;;;;15.76;50.42;101124.50;5070596;28;1064;-63
2024/03/20 03:50:43;;;;;;;;;;;;;;;15.54;51.02;101121.78;5065864;28;1111;-63
2024/03/20 03:53:09;;;;;;;;;;;;;;;16.19;49.64;101117.22;5061430;28;1504;-63
2024/03/20 03:55:35;;;;;;;;;;;;;;;17.50;46.48;101117.63;5057027;28;893;-63
2024/03/20 03:58:00;;;;;;;;;;;;;;;17.36;46.46;101120.91;5070537;28;1910;-63
2024/03/20 04:00:26;;;;;;;;;;;;;;;16.39;48.95;101116.53;5066185;28;1143;-64
2024/03/20 04:02:51;;;;;;;;;;;;;;;16.05;49.75;101110.53;5074939;28;1039;-64
2024/03/20 04:05:17;;;;;;;;;;;;;;;15.85;50.39;101111.16;5057417;28;1143;-63
2024/03/20 04:07:43;;;;;;;;;;;;;;;15.53;50.86;101109.19;5067861;28;1082;-63
2024/03/20 04:10:08;;;;;;;;;;;;;;;15.42;51.07;101119.22;5077600;28;1074;-62
2024/03/20 04:12:34;;;;;;;;;;;;;;;16.41;49.03;101124.50;5050431;28;1182;-65
2024/03/20 04:14:59;;;;;;;;;;;;;;;17.56;46.18;101127.56;5068932;28;1257;-65
2024/03/20 04:17:25;;;;;;;;;;;;;;;17.49;45.92;101121.47;5058646;28;1921;-65
2024/03/20 04:19:51;;;;;;;;;;;;;;;16.58;48.31;101119.69;5065302;28;968;-66
2024/03/20 04:22:16;;;;;;;;;;;;;;;16.14;49.32;101130.88;5070748;28;1139;-65
2024/03/20 04:24:42;;;;;;;;;;;;;;;15.88;50.26;101118.88;5057169;28;1071;-65
2024/03/20 04:27:07;;;;;;;;;;;;;;;15.69;50.31;101130.19;5058087;28;1052;-65
2024/03/20 04:29:33;;;;;;;;;;;;;;;15.46;50.99;101127.75;5068446;28;1047;-65
2024/03/20 04:31:59;;;;;;;;;;;;;;;16.77;47.96;101128.31;5067623;28;1229;-59
2024/03/20 04:34:24;;;;;;;;;;;;;;;17.76;45.57;101146.81;5076753;28;1007;-61
2024/03/20 04:36:50;;;;;;;;;;;;;;;17.03;47.14;101136.69;5075331;28;1909;-63
2024/03/20 04:39:17;;;;;;;;;;;;;;;16.22;49.18;101135.06;5056741;28;1104;-63
2024/03/20 04:41:42;;;;;;;;;;;;;;;16.00;50.03;101146.13;5070959;28;1008;-63
2024/03/20 04:44:11;;;;;;;;;;;;;;;15.72;50.33;101151.63;5064515;28;1016;-63
2024/03/20 04:46:37;;;;;;;;;;;;;;;15.56;50.77;101152.53;5071067;28;1088;-63
2024/03/20 04:49:03;;;;;;;;;;;;;;;15.68;50.59;101155.09;5076741;28;1020;-60
2024/03/20 04:51:28;;;;;;;;;;;;;;;17.21;46.99;101167.56;5074293;28;2583;-62
2024/03/20 04:53:54;;;;;;;;;;;;;;;17.78;45.54;101163.88;5076060;28;1083;-62
2024/03/20 04:56:19;;;;;;;;;;;;;;;16.64;48.13;101167.22;5064508;28;1906;-60
2024/03/20 04:58:45;;;;;;;;;;;;;;;16.14;49.62;101165.72;5068308;28;1159;-62
2024/03/20 05:01:11;;;;;;;;;;;;;;;15.80;50.13;101163.22;5069702;28;1206;-60
2024/03/20 05:03:36;;;;;;;;;;;;;;;15.70;50.44;101159.25;5055961;28;1052;-59
2024/03/20 05:06:02;;;;;;;;;;;;;;;15.53;50.89;101174.97;5070181;28;1086;-59
2024/03/20 05:08:28;;;;;;;;;;;;;;;16.82;47.96;101159.66;5062722;28;865;-60
2024/03/20 05:10:54;;;;;;;;;;;;;;;17.75;46.22;101163.59;5057733;28;1052;-63
2024/03/20 05:13:19;;;;;;;;;;;;;;;16.56;48.93;101153.97;5075995;28;1027;-60
2024/03/20 05:15:45;;;;;;;;;;;;;;;15.99;49.11;101159.03;5062362;28;1131;-61
2024/03/20 05:18:11;;;;;;;;;;;;;;;15.74;48.94;101154.91;5075904;28;1909;-60
2024/03/20 05:20:38;;;;;;;;;;;;;;;16.77;48.52;101144.78;5060767;28;1044;-60
2024/03/20 05:23:04;;;;;;;;;;;;;;;16.39;49.12;101143.16;5059783;28;2889;-57
2024/03/20 05:25:30;;;;;;;;;;;;;;;15.87;49.17;101136.44;5062909;28;1174;-59
2024/03/20 05:27:56;;;;;;;;;;;;;;;15.71;48.20;101135.41;5075868;28;1087;-57
2024/03/20 05:30:21;;;;;;;;;;;;;;;15.55;47.80;101142.66;5074525;28;1050;-58
2024/03/20 05:32:47;;;;;;;;;;;;;;;16.47;48.67;101147.34;5057987;28;1133;-58
2024/03/20 05:35:13;;;;;;;;;;;;;;;16.00;49.34;101155.19;5057231;28;1300;-58
2024/03/20 05:37:38;;;;;;;;;;;;;;;17.50;47.14;101145.13;5068110;28;1910;-58
2024/03/20 05:40:05;;;;;;;;;;;;;;;16.64;48.53;101158.97;5055422;28;1012;-58
2024/03/20 05:42:31;;;;;;;;;;;;;;;16.13;48.76;101155.84;5055935;28;1141;-57
2024/03/20 05:44:57;;;;;;;;;;;;;;;15.81;48.06;101170.34;5069260;28;913;-66
2024/03/20 05:47:22;;;;;;;;;;;;;;;16.50;48.85;101177.00;5063697;28;1023;-68
2024/03/20 05:49:48;;;;;;;;;;;;;;;16.48;49.08;101180.03;5061840;28;1071;-69
2024/03/20 05:52:13;;;;;;;;;;;;;;;15.89;49.04;101178.97;5073595;28;2845;-65
2024/03/20 05:54:39;;;;;;;;;;;;;;;15.72;48.08;101173.56;5075916;28;1007;-63
2024/03/20 05:57:04;;;;;;;;;;;;;;;17.20;48.06;101185.97;5062241;28;1906;-65
2024/03/20 05:59:30;;;;;;;;;;;;;;;16.28;49.10;101175.19;5035973;28;1061;-60
2024/03/20 06:01:56;;;;;;;;;;;;;;;15.87;48.78;101178.38;5070641;28;1065;-63
2024/03/20 06:04:21;;;;;;;;;;;;;;;17.25;47.79;101182.41;5060134;28;1035;-64
2024/03/20 06:06:47;;;;;;;;;;;;;;;16.66;48.65;101176.03;5073411;28;1055;-62
2024/03/20 06:09:13;;;;;;;;;;;;;;;16.07;48.81;101169.53;5074989;28;979;-64
2024/03/20 06:11:39;;;;;;;;;;;;;;;15.89;48.28;101173.47;5074163;28;1035;-65
2024/03/20 06:14:05;;;;;;;;;;;;;;;16.35;49.15;101181.25;5071183;28;1134;-69
2024/03/20 06:16:31;;;;;;;;;;;;;;;16.66;48.85;101180.69;5079276;28;1984;-67
2024/03/20 06:18:57;;;;;;;;;;;;;;;15.94;49.37;101183.66;5067362;28;1098;-66
2024/03/20 06:21:23;;;;;;;;;;;;;;;15.79;48.35;101178.84;5050421;28;2505;-64
2024/03/20 06:23:48;;;;;;;;;;;;;;;16.05;48.51;101188.16;5039466;28;1037;-67
2024/03/20 06:26:14;;;;;;;;;;;;;;;17.56;47.27;101177.03;5076269;28;1028;-66
2024/03/20 06:28:40;;;;;;;;;;;;;;;16.96;48.29;101180.06;5067270;28;999;-62
2024/03/20 06:31:06;;;;;;;;;;;;;;;16.25;48.97;101186.69;5075531;28;1476;-62
2024/03/20 06:33:31;;;;;;;;;;;;;;;16.05;48.08;101190.09;5074607;28;869;-61
2024/03/20 06:35:57;;;;;;;;;;;;;;;15.85;47.51;101182.47;5073831;28;1067;-63
2024/03/20 06:38:23;;;;;;;;;;;;;;;16.60;48.50;101190.78;5059522;28;1906;-60
2024/03/20 06:40:49;;;;;;;;;;;;;;;17.03;48.24;101191.66;5078961;28;1098;-60
2024/03/20 06:43:15;;;;;;;;;;;;;;;16.24;48.87;101193.25;5065711;28;1058;-60
2024/03/20 06:45:47;;;;;;;;;;;;;;;17.75;47.05;101202.94;5078623;28;880;-58
2024/03/20 06:48:13;;;;;;;;;;;;;;;16.72;48.71;101205.16;5064230;28;1082;-59
2024/03/20 06:50:38;;;;;;;;;;;;;;;16.37;48.46;101194.75;5067259;28;988;-59
2024/03/20 06:53:04;;;;;;;;;;;;;;;15.99;48.23;101193.84;5068367;28;2666;-63
2024/03/20 06:55:31;;;;;;;;;;;;;;;15.99;47.47;101191.09;5066111;28;910;-60
2024/03/20 06:57:56;;;;;;;;;;;;;;;17.10;48.35;101192.22;5052546;28;1985;-63
2024/03/20 07:00:24;;;;;;;;;;;;;;;16.89;48.74;101190.47;5049230;28;1025;-62
2024/03/20 07:02:50;;;;;;;;;;;;;;;16.39;48.84;101190.63;5072178;28;1083;-62
2024/03/20 07:05:16;;;;;;;;;;;;;;;16.91;48.81;101194.63;5058778;28;1115;-61
2024/03/20 07:07:42;;;;;;;;;;;;;;;16.99;48.61;101184.22;5075254;28;1059;-62
2024/03/20 07:10:08;;;;;;;;;;;;;;;16.36;48.87;101204.88;5069827;28;922;-61
2024/03/20 07:12:34;;;;;;;;;;;;;;;16.59;49.09;101194.63;5073248;28;1066;-59
2024/03/20 07:15:00;;;;;;;;;;;;;;;17.19;48.05;101200.78;5057899;28;1623;-60
2024/03/20 07:17:26;;;;;;;;;;;;;;;16.33;49.09;101205.41;5071455;28;1910;-60
2024/03/20 07:19:54;;;;;;;;;;;;;;;17.74;47.37;101201.28;5060563;28;2330;-60
2024/03/20 07:22:20;;;;;;;;;;;;;;;16.89;48.62;101205.03;5065245;28;2666;-59
2024/03/20 07:24:45;;;;;;;;;;;;;;;16.39;48.59;101209.84;5061346;28;1532;-59
2024/03/20 07:27:11;;;;;;;;;;;;;;;16.12;48.25;101203.56;5061805;28;1167;-59
2024/03/20 07:29:37;;;;;;;;;;;;;;;16.06;47.60;101205.44;5066412;28;1035;-59
2024/03/20 07:32:07;;;;;;;;;;;;;;;16.62;48.33;101212.50;5064941;28;1078;-60
2024/03/20 07:34:33;;;;;;;;;;;;;;;17.69;47.08;101201.25;5068691;28;1247;-59
2024/03/20 07:36:59;;;;;;;;;;;;;;;16.51;48.98;101203.34;5066527;28;1973;-59
2024/03/20 07:39:27;;;;;;;;;;;;;;;16.15;48.72;101212.13;5059485;28;965;-58
2024/03/20 07:41:53;;;;;;;;;;;;;;;16.02;47.81;101196.91;5069740;28;1032;-60
2024/03/20 07:44:18;;;;;;;;;;;;;;;15.83;47.39;101196.44;5070203;28;1135;-60
2024/03/20 07:46:44;;;;;;;;;;;;;;;17.34;48.07;101213.78;5062652;28;1580;-58
2024/03/20 07:49:10;;;;;;;;;;;;;;;16.77;48.93;101210.72;5072267;28;1055;-60
2024/03/20 07:51:36;;;;;;;;;;;;;;;16.15;49.08;101219.53;5058842;28;2590;-60
2024/03/20 07:54:02;;;;;;;;;;;;;;;17.03;48.70;101219.13;5068609;28;1074;-60
2024/03/20 07:56:27;;;;;;;;;;;;;;;16.60;48.71;101204.53;5029108;28;1996;-60
2024/03/20 07:58:53;;;;;;;;;;;;;;;16.19;48.74;101226.97;5056263;28;989;-60
2024/03/20 08:01:20;;;;;;;;;;;;;;;15.96;48.24;101219.88;5062030;28;1011;-60
2024/03/20 08:03:48;;;;;;;;;;;;;;;15.90;48.07;101226.41;5057418;28;1098;-60
2024/03/20 08:06:14;;;;;;;;;;;;;;;17.38;47.58;101225.09;5067595;28;1011;-60
2024/03/20 08:08:39;;;;;;;;;;;;;;;16.29;49.19;101225.41;5060687;28;1639;-58
2024/03/20 08:11:05;;;;;;;;;;;;;;;15.91;48.88;101219.84;5063061;28;1184;-61
2024/03/20 08:13:31;;;;;;;;;;;;;;;16.58;49.03;101220.44;5049787;28;1045;-62
2024/03/20 08:15:56;;;;;;;;;;;;;;;16.04;48.93;101227.63;5060560;28;1075;-61
2024/03/20 08:18:23;;;;;;;;;;;;;;;17.65;47.35;101233.16;5077704;28;1918;-61
2024/03/20 08:20:48;;;;;;;;;;;;;;;17.31;47.65;101225.31;5073302;28;1094;-61
2024/03/20 08:23:14;;;;;;;;;;;;;;;16.54;48.83;101205.59;5050447;28;2672;-61
2024/03/20 08:25:39;;;;;;;;;;;;;;;16.28;48.15;101230.06;5070149;28;1001;-60
2024/03/20 08:28:05;;;;;;;;;;;;;;;16.01;47.88;101230.91;5043877;28;1513;-62
2024/03/20 08:30:31;;;;;;;;;;;;;;;15.87;47.76;101233.22;5059656;28;928;-62
2024/03/20 08:32:56;;;;;;;;;;;;;;;17.51;47.70;101243.00;5052871;28;1132;-60
2024/03/20 08:35:22;;;;;;;;;;;;;;;16.54;48.98;101244.84;5073371;28;1055;-58
2024/03/20 08:37:47;;;;;;;;;;;;;;;16.23;49.18;101241.00;5057694;28;1922;-60
2024/03/20 08:40:13;;;;;;;;;;;;;;;17.20;48.12;101240.94;5044894;28;1112;-60
2024/03/20 08:42:39;;;;;;;;;;;;;;;16.32;48.98;101235.88;5065803;28;1015;-60
2024/03/20 08:45:05;;;;;;;;;;;;;;;16.34;48.55;101245.50;5064913;28;1028;-60
2024/03/20 08:47:31;;;;;;;;;;;;;;;17.39;47.72;101248.72;5058629;28;1080;-59
2024/03/20 08:49:57;;;;;;;;;;;;;;;16.58;48.76;101250.66;5065941;28;1221;-59
2024/03/20 08:52:22;;;;;;;;;;;;;;;16.24;48.14;101239.91;5055295;28;2743;-58
2024/03/20 08:54:49;;;;;;;;;;;;;;;16.24;48.39;101243.50;5056769;28;1027;-58
2024/03/20 08:57:18;;;;;;;;;;;;;;;16.97;48.28;101252.31;5061382;28;1977;-58
2024/03/20 08:59:43;;;;;;;;;;;;;;;16.35;48.74;101244.38;5075805;28;1003;-58
2024/03/20 09:02:09;;;;;;;;;;;;;;;16.07;48.32;101240.84;5058838;28;1103;-58
2024/03/20 09:04:35;;;;;;;;;;;;;;;15.92;47.53;101257.13;5065465;28;1017;-56
2024/03/20 09:07:00;;;;;;;;;;;;;;;17.06;48.06;101262.56;5065446;28;1043;-56
2024/03/20 09:09:26;;;;;;;;;;;;;;;17.50;47.45;101257.84;5052887;28;1166;-58
2024/03/20 09:11:52;;;;;;;;;;;;;;;16.51;48.86;101258.25;5061484;28;1572;-58
2024/03/20 09:14:18;;;;;;;;;;;;;;;16.29;47.86;101253.69;5068242;28;1164;-58
2024/03/20 09:16:44;;;;;;;;;;;;;;;16.05;47.47;101243.03;5047341;28;1975;-59
2024/03/20 09:19:10;;;;;;;;;;;;;;;17.39;47.48;101257.81;5068310;28;1137;-58
2024/03/20 09:21:38;;;;;;;;;;;;;;;17.03;48.36;101254.84;5066266;28;2414;-60
2024/03/20 09:24:05;;;;;;;;;;;;;;;16.40;48.62;101260.91;5062910;28;1056;-60
2024/03/20 09:26:32;;;;;;;;;;;;;;;16.21;48.16;101259.63;5045919;28;1063;-58
2024/03/20 09:28:57;;;;;;;;;;;;;;;17.36;47.78;101266.59;5069065;28;1049;-59
2024/03/20 09:31:23;;;;;;;;;;;;;;;18.03;46.37;101261.34;5060251;28;1119;-58
2024/03/20 09:33:48;;;;;;;;;;;;;;;16.80;48.12;101263.44;5068095;28;997;-59
2024/03/20 09:36:14;;;;;;;;;;;;;;;16.54;47.66;101261.31;5065504;28;1091;-59
2024/03/20 09:38:40;;;;;;;;;;;;;;;16.22;47.80;101270.34;5042821;28;1906;-59
2024/03/20 09:41:08;;;;;;;;;;;;;;;16.16;47.13;101267.81;5055374;28;1075;-59
2024/03/20 09:43:34;;;;;;;;;;;;;;;16.88;48.02;101268.44;5045124;28;1127;-59
2024/03/20 09:45:59;;;;;;;;;;;;;;;16.61;48.45;101263.84;5070513;28;1178;-60
2024/03/20 09:48:25;;;;;;;;;;;;;;;16.30;48.61;101266.31;5057056;28;1420;-60
2024/03/20 09:50:51;;;;;;;;;;;;;;;17.97;46.54;101267.94;5065672;28;1213;-59
2024/03/20 09:53:16;;;;;;;;;;;;;;;16.85;48.46;101258.00;5058824;28;2717;-59
2024/03/20 09:55:43;;;;;;;;;;;;;;;16.41;48.23;101265.31;5065733;28;1110;-59
2024/03/20 09:58:11;;;;;;;;;;;;;;;16.08;48.15;101272.66;5067618;28;1914;-59
2024/03/20 10:00:37;;;;;;;;;;;;;;;16.14;47.91;101267.25;5067743;28;1588;-58
2024/03/20 10:03:03;;;;;;;;;;;;;;;16.56;48.42;101261.91;5066599;28;1033;-58
2024/03/20 10:05:28;;;;;;;;;;;;;;;16.11;48.36;101262.28;5046857;28;1057;-58
2024/03/20 10:07:54;;;;;;;;;;;;;;;16.76;48.25;101271.38;5044665;28;1225;-59
2024/03/20 10:10:19;;;;;;;;;;;;;;;17.53;47.16;101258.16;5050529;28;1067;-58
2024/03/20 10:12:45;;;;;;;;;;;;;;;16.55;48.55;101265.72;5060774;28;1430;-58
2024/03/20 10:15:11;;;;;;;;;;;;;;;16.21;48.18;101262.38;5074988;28;1361;-57
2024/03/20 10:17:37;;;;;;;;;;;;;;;16.91;48.50;101256.94;5062850;28;1977;-61
2024/03/20 10:20:19;;;;;;;;;;;;;;;16.99;48.30;101252.91;5074851;28;1047;-58
2024/03/20 10:22:45;;;;;;;;;;;;;;;16.34;48.39;101248.25;5070331;28;2374;-59
2024/03/20 10:25:13;;;;;;;;;;;;;;;16.10;48.22;101257.88;5052341;28;1079;-60
2024/03/20 10:27:38;;;;;;;;;;;;;;;17.76;46.90;101243.09;5053144;28;1312;-58
2024/03/20 10:30:11;;;;;;;;;;;;;;;16.64;48.67;101238.59;5046430;28;1084;-58
2024/03/20 10:32:37;;;;;;;;;;;;;;;16.28;48.32;101243.78;5063447;28;1040;-57
2024/03/20 10:35:03;;;;;;;;;;;;;;;16.14;47.83;101250.78;5061494;28;848;-58
2024/03/20 10:37:29;;;;;;;;;;;;;;;15.98;47.51;101252.56;5052685;28;1886;-58
2024/03/20 10:39:55;;;;;;;;;;;;;;;17.04;47.77;101245.50;5049173;28;1211;-58
2024/03/20 10:42:21;;;;;;;;;;;;;;;16.57;48.72;101254.47;5041625;28;1161;-56
2024/03/20 10:44:47;;;;;;;;;;;;;;;16.11;48.49;101241.16;5024391;28;1145;-56
2024/03/20 10:47:12;;;;;;;;;;;;;;;17.45;47.20;101242.97;5065425;28;840;-56
2024/03/20 10:49:38;;;;;;;;;;;;;;;16.62;48.54;101238.06;5065986;28;1140;-54
2024/03/20 10:52:04;;;;;;;;;;;;;;;16.31;48.11;101235.03;5070864;28;2717;-57
2024/03/20 10:54:29;;;;;;;;;;;;;;;15.95;47.88;101220.97;5072106;28;1067;-57
2024/03/20 10:56:56;;;;;;;;;;;;;;;17.02;48.07;101222.97;5050812;28;1894;-56
2024/03/20 10:59:23;;;;;;;;;;;;;;;17.96;46.06;101216.75;5059608;28;870;-58
2024/03/20 11:01:54;;;;;;;;;;;;;;;16.78;48.56;101219.75;5078816;28;1035;-58
2024/03/20 11:04:30;;;;;;;;;;;;;;;16.31;48.42;101218.56;5064284;28;1011;-58
2024/03/20 11:06:58;;;;;;;;;;;;;;;16.14;47.78;101224.16;5068081;28;1245;-57
2024/03/20 11:09:25;;;;;;;;;;;;;;;16.66;48.19;101219.13;5064998;28;1151;-58
2024/03/20 11:11:52;;;;;;;;;;;;;;;17.64;46.92;101216.94;5069851;28;913;-55
2024/03/20 11:14:25;;;;;;;;;;;;;;;16.55;48.49;101207.22;5065005;28;1088;-58
2024/03/20 11:16:53;;;;;;;;;;;;;;;16.18;48.17;101208.84;5068182;28;1906;-59
2024/03/20 11:19:20;;;;;;;;;;;;;;;17.70;46.83;101213.13;5075783;28;1091;-59
2024/03/20 11:21:46;;;;;;;;;;;;;;;16.66;48.39;101208.97;5045257;28;2535;-56
2024/03/20 11:24:13;;;;;;;;;;;;;;;16.32;47.86;101209.25;5076333;28;975;-59
2024/03/20 11:26:38;;;;;;;;;;;;;;;17.53;47.15;101205.06;5078518;28;1039;-57
2024/03/20 11:29:04;;;;;;;;;;;;;;;16.57;48.40;101196.81;5078060;28;1059;-57
2024/03/20 11:31:30;;;;;;;;;;;;;;;16.30;48.21;101210.59;5070693;28;1248;-58
2024/03/20 11:33:55;;;;;;;;;;;;;;;16.31;47.22;101207.56;5057402;28;1458;-59
2024/03/20 11:36:21;;;;;;;;;;;;;;;16.00;47.42;101210.03;5057371;28;1905;-57
2024/03/20 11:38:47;;;;;;;;;;;;;;;17.07;47.86;101208.44;5069360;28;1083;-58
2024/03/20 11:41:16;;;;;;;;;;;;;;;16.79;48.29;101209.59;5068718;28;1091;-58
2024/03/20 11:43:43;;;;;;;;;;;;;;;16.23;48.13;101206.16;5066965;28;1314;-58
2024/03/20 11:46:12;;;;;;;;;;;;;;;16.31;48.19;101204.84;5074215;28;1226;-57
2024/03/20 11:48:38;;;;;;;;;;;;;;;17.93;46.33;101189.78;5064157;28;1151;-59
2024/03/20 11:51:05;;;;;;;;;;;;;;;16.73;48.34;101203.25;5066775;28;1092;-60
2024/03/20 11:53:31;;;;;;;;;;;;;;;16.38;47.91;101193.66;5066677;28;2667;-61
2024/03/20 11:55:56;;;;;;;;;;;;;;;16.12;47.37;101192.59;5055576;28;926;-60
2024/03/20 11:58:22;;;;;;;;;;;;;;;15.97;46.96;101196.84;5072376;28;1909;-61
2024/03/20 12:00:47;;;;;;;;;;;;;;;16.85;48.06;101200.31;5046417;28;1007;-59
2024/03/20 12:03:19;;;;;;;;;;;;;;;17.03;47.97;101191.66;5074479;28;1052;-60
2024/03/20 12:05:45;;;;;;;;;;;;;;;16.35;48.58;101192.25;5064046;28;1104;-58
2024/03/20 12:08:19;;;;;;;;;;;;;;;16.17;48.16;101195.38;5037832;28;1058;-58
2024/03/20 12:10:45;;;;;;;;;;;;;;;17.70;46.76;101200.19;5059190;28;1089;-62
2024/03/20 12:13:11;;;;;;;;;;;;;;;16.56;48.54;101195.16;5044274;28;974;-61
2024/03/20 12:15:37;;;;;;;;;;;;;;;16.28;48.24;101199.06;5052583;28;1324;-56
2024/03/20 12:18:03;;;;;;;;;;;;;;;16.06;47.53;101199.94;5070654;28;1972;-56
2024/03/20 12:20:29;;;;;;;;;;;;;;;16.51;48.33;101192.38;5070087;28;1015;-58
2024/03/20 12:22:55;;;;;;;;;;;;;;;16.88;48.11;101191.53;5039874;28;2637;-57
2024/03/20 12:25:21;;;;;;;;;;;;;;;16.22;48.47;101195.44;5070283;28;1047;-57
2024/03/20 12:27:47;;;;;;;;;;;;;;;16.10;47.70;101194.78;5076385;28;1098;-58
2024/03/20 12:30:13;;;;;;;;;;;;;;;16.10;48.01;101184.63;5063437;28;1152;-60
2024/03/20 12:32:38;;;;;;;;;;;;;;;17.25;47.64;101190.66;5070612;28;1060;-59
2024/03/20 12:35:08;;;;;;;;;;;;;;;16.35;48.62;101192.25;5070940;28;1020;-59
2024/03/20 12:37:33;;;;;;;;;;;;;;;16.05;48.15;101179.94;5063718;28;1976;-60
2024/03/20 12:39:59;;;;;;;;;;;;;;;17.31;47.47;101181.34;5050141;28;1170;-59
2024/03/20 12:42:25;;;;;;;;;;;;;;;16.88;48.38;101173.16;5070090;28;1047;-61